Time;durP1;ratioP1;P1;durP2;ratioP2;P2;SDS_P1;SDS_P2;PMS_P1;PMS_P2;Temp;Humidity;BMP_temperature;BMP_pressure;BME280_temperature;BME280_humidity;BME280_pressure;Samples;Min_cycle;Max_cycle;Signal;HPM_P1;HPM_P2
2022/03/21 00:00:53;;;;;;;95.67;43.07;;;1.30;99.90;;;;;;5001616;28;20698;-84
2022/03/21 00:03:28;;;;;;;92.63;43.00;;;1.30;99.90;;;;;;5006332;28;20571;-80
2022/03/21 00:05:57;;;;;;;99.47;43.17;;;1.30;99.90;;;;;;5000915;28;20851;-83
2022/03/21 00:08:24;;;;;;;99.63;43.30;;;1.30;99.90;;;;;;5004088;28;20623;-81
2022/03/21 00:10:53;;;;;;;109.50;44.77;;;1.30;99.90;;;;;;4997147;28;20207;-83
2022/03/21 00:13:20;;;;;;;98.50;43.83;;;1.30;99.90;;;;;;4991079;28;20219;-83
2022/03/21 00:15:49;;;;;;;102.87;44.40;;;1.30;99.90;;;;;;5004651;28;20541;-81
2022/03/21 00:18:16;;;;;;;111.23;48.17;;;1.30;99.90;;;;;;4987348;28;20306;-84
2022/03/21 00:20:45;;;;;;;98.33;44.23;;;1.30;99.90;;;;;;5001623;28;20558;-81
2022/03/21 00:23:13;;;;;;;108.60;45.13;;;1.30;99.90;;;;;;4999299;28;20211;-83
2022/03/21 00:25:40;;;;;;;113.37;47.27;;;1.30;99.90;;;;;;5000237;28;20239;-81
2022/03/21 00:28:08;;;;;;;98.03;43.53;;;1.20;99.90;;;;;;4985105;28;20212;-81
2022/03/21 00:30:37;;;;;;;94.47;40.43;;;1.20;99.90;;;;;;5002787;28;20310;-81
2022/03/21 00:33:04;;;;;;;95.50;42.83;;;1.20;99.90;;;;;;5000889;28;20216;-82
2022/03/21 00:35:31;;;;;;;95.33;42.60;;;1.20;99.90;;;;;;5006679;28;20270;-83
2022/03/21 00:37:59;;;;;;;88.20;40.03;;;1.20;99.90;;;;;;5003676;28;20200;-84
2022/03/21 00:40:26;;;;;;;97.03;41.07;;;1.10;99.90;;;;;;5002086;28;20697;-82
2022/03/21 00:42:53;;;;;;;84.97;40.03;;;1.10;99.90;;;;;;5003582;28;20647;-81
2022/03/21 00:45:26;;;;;;;85.63;40.27;;;1.10;99.90;;;;;;4982006;28;20238;-82
2022/03/21 00:47:54;;;;;;;82.20;40.37;;;1.00;99.90;;;;;;5009856;28;20305;-82
2022/03/21 00:50:24;;;;;;;81.77;37.80;;;1.00;99.90;;;;;;4995601;28;20258;-83
2022/03/21 00:52:53;;;;;;;81.47;39.93;;;1.00;99.90;;;;;;5007767;28;20252;-82
2022/03/21 00:55:25;;;;;;;79.13;39.17;;;1.00;99.90;;;;;;4993347;28;20815;-82
2022/03/21 00:57:53;;;;;;;85.07;37.70;;;0.90;99.90;;;;;;5005509;28;20298;-82
2022/03/21 01:00:22;;;;;;;79.93;38.90;;;0.90;99.90;;;;;;4987873;28;20220;-83
2022/03/21 01:02:48;;;;;;;80.37;37.40;;;0.90;99.90;;;;;;5005743;28;20218;-82
2022/03/21 01:05:16;;;;;;;76.60;37.40;;;0.90;99.90;;;;;;4989007;28;20604;-82
2022/03/21 01:07:43;;;;;;;74.30;37.47;;;0.80;99.90;;;;;;5002575;28;20735;-83
2022/03/21 01:10:14;;;;;;;79.23;37.73;;;0.80;99.90;;;;;;4992302;28;20262;-83
2022/03/21 01:12:42;;;;;;;76.93;37.40;;;0.80;99.90;;;;;;5000432;28;21278;-84
2022/03/21 01:15:10;;;;;;;75.77;36.77;;;0.80;99.90;;;;;;5005232;28;20257;-82
2022/03/21 01:17:37;;;;;;;94.60;42.47;;;0.70;99.90;;;;;;4991460;28;20250;-82
2022/03/21 01:20:04;;;;;;;103.00;42.67;;;0.70;99.90;;;;;;4993515;28;20230;-82
2022/03/21 01:22:31;;;;;;;100.60;44.37;;;0.70;99.90;;;;;;4988519;28;20233;-84
2022/03/21 01:24:58;;;;;;;96.60;43.07;;;0.70;99.90;;;;;;5005889;28;20294;-83
2022/03/21 01:27:25;;;;;;;92.53;41.67;;;0.70;99.90;;;;;;4988466;28;20677;-84
2022/03/21 01:29:51;;;;;;;76.43;37.93;;;0.60;99.90;;;;;;5008460;28;20243;-82
2022/03/21 01:32:18;;;;;;;80.90;37.40;;;0.60;99.90;;;;;;5008820;28;20210;-82
2022/03/21 01:34:45;;;;;;;80.30;39.33;;;0.60;99.90;;;;;;5006582;28;20334;-82
2022/03/21 01:37:12;;;;;;;84.07;39.07;;;0.60;99.90;;;;;;5014626;28;20290;-83
2022/03/21 01:39:39;;;;;;;94.37;42.30;;;0.60;99.90;;;;;;5004863;28;20267;-83
2022/03/21 01:42:06;;;;;;;90.20;41.60;;;0.50;99.90;;;;;;4988082;28;20253;-83
2022/03/21 01:44:33;;;;;;;84.20;37.97;;;0.50;99.90;;;;;;5004920;28;20668;-83
2022/03/21 01:47:00;;;;;;;87.37;41.23;;;0.50;99.90;;;;;;5004355;28;20246;-83
2022/03/21 01:49:27;;;;;;;86.30;39.37;;;0.40;99.90;;;;;;5005072;28;20692;-86
2022/03/21 01:51:54;;;;;;;84.77;40.13;;;0.50;99.90;;;;;;5007637;28;20207;-83
2022/03/21 01:57:07;;;;;;;74.17;36.27;;;0.40;99.90;;;;;;5006123;28;20290;-84
2022/03/21 01:59:35;;;;;;;71.53;36.30;;;0.30;99.90;;;;;;5006644;28;20293;-85
2022/03/21 02:02:05;;;;;;;70.97;36.57;;;0.30;99.90;;;;;;5004020;28;20230;-83
2022/03/21 02:04:35;;;;;;;67.33;33.77;;;0.20;99.90;;;;;;4991699;28;20297;-83
2022/03/21 02:07:02;;;;;;;60.93;32.77;;;0.20;99.90;;;;;;5002934;28;20210;-82
2022/03/21 02:09:29;;;;;;;68.27;34.03;;;0.20;99.90;;;;;;5006225;28;20202;-83
2022/03/21 02:11:57;;;;;;;65.47;34.10;;;0.10;99.90;;;;;;5026886;28;20711;-84
2022/03/21 02:14:24;;;;;;;63.83;32.77;;;0.10;99.90;;;;;;5002820;28;20234;-83
2022/03/21 02:16:51;;;;;;;65.63;34.63;;;0.10;99.90;;;;;;5026081;28;20230;-84
2022/03/21 02:19:24;;;;;;;69.53;34.90;;;0.10;99.90;;;;;;5003909;28;20276;-83
2022/03/21 02:22:07;;;;;;;66.83;34.53;;;0.10;99.90;;;;;;4993472;28;20310;-85
2022/03/21 02:24:46;;;;;;;75.30;35.57;;;0.10;99.90;;;;;;5005461;28;20198;-83
2022/03/21 02:27:15;;;;;;;64.87;33.53;;;0.00;99.90;;;;;;5005521;28;20250;-83
2022/03/21 02:29:43;;;;;;;67.13;34.70;;;0.00;99.90;;;;;;5008513;28;20290;-83
2022/03/21 02:32:10;;;;;;;72.10;35.43;;;0.00;99.90;;;;;;5011211;28;20334;-84
2022/03/21 02:34:39;;;;;;;69.17;34.53;;;0.00;99.90;;;;;;5010636;28;20245;-83
2022/03/21 02:37:14;;;;;;;65.63;33.57;;;-0.10;99.90;;;;;;5010929;28;20277;-83
2022/03/21 02:39:42;;;;;;;71.53;34.10;;;-0.10;99.90;;;;;;4987913;28;20245;-83
2022/03/21 02:42:09;;;;;;;70.33;34.00;;;-0.10;99.90;;;;;;5009382;28;20203;-84
2022/03/21 02:44:39;;;;;;;68.40;33.90;;;-0.10;99.90;;;;;;5003045;28;20634;-83
2022/03/21 02:47:08;;;;;;;67.90;34.80;;;-0.20;99.90;;;;;;5008340;28;20234;-84
2022/03/21 02:49:35;;;;;;;67.33;33.07;;;-0.20;99.90;;;;;;5008964;28;20317;-84
2022/03/21 02:52:04;;;;;;;61.63;31.07;;;-0.20;99.90;;;;;;5005139;28;20277;-83
2022/03/21 02:54:32;;;;;;;74.00;36.90;;;-0.30;99.90;;;;;;5005882;28;20247;-83
2022/03/21 02:57:00;;;;;;;76.70;35.93;;;-0.30;99.90;;;;;;5001810;28;20297;-83
2022/03/21 02:59:27;;;;;;;87.50;37.57;;;-0.30;99.90;;;;;;4992368;28;20614;-84
2022/03/21 03:01:54;;;;;;;76.10;36.70;;;-0.30;99.90;;;;;;4992829;28;20223;-84
2022/03/21 03:04:25;;;;;;;76.93;35.20;;;-0.30;99.90;;;;;;4983180;28;20238;-84
2022/03/21 03:06:53;;;;;;;74.40;35.80;;;-0.30;99.90;;;;;;4992429;28;20309;-83
2022/03/21 03:09:20;;;;;;;81.17;37.03;;;-0.40;99.90;;;;;;4986131;28;20298;-84
2022/03/21 03:11:47;;;;;;;72.40;35.00;;;-0.40;99.90;;;;;;5005237;28;20261;-84
2022/03/21 03:14:15;;;;;;;75.93;36.47;;;-0.40;99.90;;;;;;4992835;28;20640;-84
2022/03/21 03:16:42;;;;;;;72.40;34.17;;;-0.40;99.90;;;;;;5004084;28;20231;-83
2022/03/21 03:19:09;;;;;;;69.77;34.13;;;-0.40;99.90;;;;;;4988227;28;20297;-83
2022/03/21 03:21:45;;;;;;;70.50;34.53;;;-0.40;99.90;;;;;;4989519;28;20319;-84
2022/03/21 03:24:13;;;;;;;97.47;40.83;;;-0.40;99.90;;;;;;5005980;28;20274;-83
2022/03/21 03:26:40;;;;;;;83.43;38.20;;;-0.50;99.90;;;;;;5006257;28;20290;-83
2022/03/21 03:29:07;;;;;;;84.30;39.00;;;-0.40;99.90;;;;;;5006684;28;20752;-83
2022/03/21 03:31:35;;;;;;;76.73;35.47;;;-0.40;99.90;;;;;;5000492;28;20233;-83
2022/03/21 03:34:04;;;;;;;85.03;37.47;;;-0.40;99.90;;;;;;5005653;28;20324;-84
2022/03/21 03:36:32;;;;;;;74.20;36.27;;;-0.40;99.90;;;;;;5005879;28;20298;-82
2022/03/21 03:38:59;;;;;;;82.47;38.30;;;-0.40;99.90;;;;;;4991209;28;20600;-83
2022/03/21 03:41:27;;;;;;;85.40;37.30;;;-0.50;99.90;;;;;;5019987;28;20260;-83
2022/03/21 03:43:54;;;;;;;82.83;37.83;;;-0.40;99.90;;;;;;5006186;28;20733;-82
2022/03/21 03:46:22;;;;;;;90.30;38.07;;;-0.40;99.90;;;;;;4995110;28;20227;-84
2022/03/21 03:48:49;;;;;;;79.73;37.27;;;-0.40;99.90;;;;;;5006032;28;20257;-84
2022/03/21 03:51:16;;;;;;;77.13;37.07;;;-0.50;99.90;;;;;;4991174;28;20282;-82
2022/03/21 03:53:44;;;;;;;80.67;37.17;;;-0.40;99.90;;;;;;5008502;28;20662;-82
2022/03/21 03:56:11;;;;;;;80.20;38.00;;;-0.40;99.90;;;;;;5004806;28;20543;-84
2022/03/21 03:58:38;;;;;;;76.03;34.53;;;-0.50;99.90;;;;;;5005028;28;20211;-83
2022/03/21 04:01:06;;;;;;;69.20;34.60;;;-0.40;99.90;;;;;;4988854;28;20223;-84
2022/03/21 04:03:46;;;;;;;73.50;35.90;;;-0.50;99.90;;;;;;5008071;28;20226;-84
2022/03/21 04:06:21;;;;;;;87.90;40.47;;;-0.40;99.90;;;;;;4989076;28;20260;-83
2022/03/21 04:08:49;;;;;;;100.27;41.17;;;-0.50;99.90;;;;;;4999286;28;20285;-83
2022/03/21 04:11:17;;;;;;;96.27;39.73;;;-0.50;99.90;;;;;;4989631;28;20210;-84
2022/03/21 04:13:45;;;;;;;92.47;41.20;;;-0.60;99.90;;;;;;5003947;28;20325;-84
2022/03/21 04:16:14;;;;;;;101.53;41.47;;;-0.60;99.90;;;;;;5000239;28;20234;-83
2022/03/21 04:18:41;;;;;;;95.00;39.07;;;-0.60;99.90;;;;;;5000469;28;20207;-83
2022/03/21 04:21:26;;;;;;;85.70;38.03;;;-0.60;99.90;;;;;;5000040;28;20663;-79
2022/03/21 04:23:53;;;;;;;73.53;35.03;;;-0.70;99.90;;;;;;4992136;28;20206;-82
2022/03/21 04:26:20;;;;;;;78.27;35.90;;;-0.70;99.90;;;;;;5004537;28;20219;-85
2022/03/21 04:28:47;;;;;;;71.50;34.77;;;-0.70;99.90;;;;;;5008824;28;20203;-84
2022/03/21 04:31:13;;;;;;;84.43;37.53;;;-0.70;99.90;;;;;;5009466;28;20690;-82
2022/03/21 04:33:41;;;;;;;83.50;38.10;;;-0.80;99.90;;;;;;4996754;28;20737;-83
2022/03/21 04:36:08;;;;;;;88.73;39.13;;;-0.80;99.90;;;;;;5002250;28;20233;-83
2022/03/21 04:38:34;;;;;;;89.57;36.83;;;-0.80;99.90;;;;;;5002980;28;20226;-83
2022/03/21 04:41:01;;;;;;;90.00;38.70;;;-0.90;99.90;;;;;;5006374;28;20292;-83
2022/03/21 04:43:28;;;;;;;87.27;36.97;;;-0.80;99.90;;;;;;4991796;28;20233;-84
2022/03/21 04:45:55;;;;;;;94.57;38.00;;;-0.80;99.90;;;;;;4991837;28;20235;-83
2022/03/21 04:48:22;;;;;;;81.77;36.40;;;-0.90;99.90;;;;;;4991280;28;20301;-82
2022/03/21 04:50:48;;;;;;;89.80;37.03;;;-0.90;99.90;;;;;;5010614;28;20307;-84
2022/03/21 04:53:16;;;;;;;80.53;36.07;;;-0.90;99.90;;;;;;5010307;28;20298;-82
2022/03/21 04:55:43;;;;;;;85.37;37.73;;;-0.90;99.90;;;;;;5005891;28;20237;-83
2022/03/21 04:58:11;;;;;;;80.87;37.73;;;-0.90;99.90;;;;;;5005640;28;20216;-83
2022/03/21 05:00:38;;;;;;;79.53;37.07;;;-0.90;99.90;;;;;;5009328;28;20779;-82
2022/03/21 05:03:09;;;;;;;99.70;38.60;;;-0.90;99.90;;;;;;5007575;28;20202;-81
2022/03/21 05:05:42;;;;;;;93.53;39.27;;;-0.90;99.90;;;;;;5013036;28;20210;-82
2022/03/21 05:08:09;;;;;;;85.13;36.30;;;-1.00;99.90;;;;;;4995882;28;20206;-82
2022/03/21 05:10:36;;;;;;;89.23;38.60;;;-1.00;99.90;;;;;;5003159;28;20415;-83
2022/03/21 05:13:03;;;;;;;96.27;38.00;;;-1.00;99.90;;;;;;5007886;28;20385;-83
2022/03/21 05:15:31;;;;;;;101.70;39.00;;;-1.00;99.90;;;;;;4986426;28;20238;-83
2022/03/21 05:17:58;;;;;;;97.03;39.80;;;-1.00;99.90;;;;;;5007656;28;20597;-83
2022/03/21 05:20:25;;;;;;;90.93;37.90;;;-1.00;99.90;;;;;;5001386;28;20725;-83
2022/03/21 05:31:11;;;;;;;81.27;35.23;;;-1.10;99.90;;;;;;5007720;28;20297;-83
2022/03/21 05:36:27;;;;;;;83.93;37.20;;;-1.10;99.90;;;;;;5003515;28;20321;-83
2022/03/21 05:38:56;;;;;;;85.50;36.70;;;-1.10;99.90;;;;;;5001059;28;20213;-82
2022/03/21 05:41:23;;;;;;;83.00;35.37;;;-1.20;99.90;;;;;;5001787;28;20242;-82
2022/03/21 05:43:50;;;;;;;90.83;35.57;;;-1.20;99.90;;;;;;5006338;28;20643;-83
2022/03/21 05:46:18;;;;;;;82.93;34.67;;;-1.10;99.90;;;;;;5002835;28;20315;-82
2022/03/21 05:48:51;;;;;;;91.07;38.90;;;-1.10;99.90;;;;;;5005907;28;20202;-82
2022/03/21 05:51:22;;;;;;;98.03;38.33;;;-1.20;99.90;;;;;;4988352;28;20238;-82
2022/03/21 05:53:51;;;;;;;86.33;36.30;;;-1.10;99.90;;;;;;5001338;28;20214;-82
2022/03/21 05:56:18;;;;;;;95.13;37.80;;;-1.10;99.90;;;;;;5002574;28;20325;-83
2022/03/21 05:58:45;;;;;;;93.93;36.43;;;-1.10;99.90;;;;;;5001879;28;20215;-82
2022/03/21 06:01:15;;;;;;;105.50;39.17;;;-1.10;99.90;;;;;;5004041;28;20272;-82
2022/03/21 06:03:43;;;;;;;106.23;40.90;;;-1.10;99.90;;;;;;4993385;28;20210;-81
2022/03/21 06:06:10;;;;;;;103.50;41.40;;;-1.00;99.90;;;;;;4992902;28;20736;-83
2022/03/21 06:08:37;;;;;;;108.57;43.30;;;-1.00;99.90;;;;;;5004061;28;20612;-83
2022/03/21 06:11:04;;;;;;;125.80;44.33;;;-0.90;99.90;;;;;;5005882;28;20241;-82
2022/03/21 06:13:39;;;;;;;143.27;46.67;;;-0.80;99.90;;;;;;5004984;28;20199;-83
2022/03/21 06:16:06;;;;;;;129.77;45.53;;;-0.70;99.90;;;;;;4989764;28;20644;-83
2022/03/21 06:18:35;;;;;;;135.73;48.10;;;-0.60;99.90;;;;;;4982188;28;20290;-83
2022/03/21 06:21:04;;;;;;;133.80;47.07;;;-0.50;99.90;;;;;;5002074;28;20571;-84
2022/03/21 06:23:31;;;;;;;138.97;49.37;;;-0.40;99.90;;;;;;5006036;28;20207;-83
2022/03/21 06:25:58;;;;;;;138.73;49.30;;;-0.40;99.90;;;;;;4998582;28;20314;-84
2022/03/21 06:28:27;;;;;;;147.83;48.77;;;-0.30;99.90;;;;;;5004412;28;20230;-82
2022/03/21 06:30:54;;;;;;;135.57;49.77;;;-0.20;99.90;;;;;;5002280;28;20222;-84
2022/03/21 06:33:24;;;;;;;138.83;50.03;;;-0.10;99.90;;;;;;4992464;28;20210;-83
2022/03/21 06:35:52;;;;;;;136.83;51.30;;;-0.10;99.90;;;;;;4983536;28;20219;-82
2022/03/21 06:38:19;;;;;;;148.87;51.30;;;0.00;99.90;;;;;;5008926;28;20194;-82
2022/03/21 06:40:46;;;;;;;127.23;48.87;;;0.10;99.90;;;;;;5001660;28;20286;-82
2022/03/21 06:43:15;;;;;;;128.97;47.50;;;0.20;99.90;;;;;;4989706;28;20257;-82
2022/03/21 06:45:44;;;;;;;125.07;47.83;;;0.20;99.90;;;;;;5000665;28;20281;-81
2022/03/21 06:48:10;;;;;;;135.53;49.80;;;0.30;99.90;;;;;;5005429;28;20218;-83
2022/03/21 06:50:37;;;;;;;149.10;50.23;;;0.40;99.90;;;;;;5004890;28;20652;-83
2022/03/21 06:53:04;;;;;;;153.43;54.43;;;0.40;99.90;;;;;;4993689;28;20204;-83
2022/03/21 06:55:31;;;;;;;156.67;56.63;;;0.50;99.90;;;;;;4983336;28;20274;-83
2022/03/21 06:58:01;;;;;;;189.50;57.50;;;0.50;99.90;;;;;;5005978;28;20319;-81
2022/03/21 07:00:27;;;;;;;246.00;68.00;;;0.60;99.90;;;;;;4988301;28;20215;-83
2022/03/21 07:02:54;;;;;;;254.30;69.67;;;1.10;99.90;;;;;;4986288;28;20500;-83
2022/03/21 07:05:21;;;;;;;206.43;65.63;;;1.80;99.90;;;;;;5004572;28;20556;-84
2022/03/21 07:07:50;;;;;;;171.90;61.03;;;2.60;99.90;;;;;;4999953;28;20244;-84
2022/03/21 07:10:17;;;;;;;126.90;50.40;;;3.60;99.90;;;;;;5001895;28;20736;-84
2022/03/21 07:12:44;;;;;;;101.03;44.37;;;4.50;99.90;;;;;;4999008;28;20203;-83
2022/03/21 07:15:11;;;;;;;83.17;38.73;;;5.30;99.90;;;;;;4991739;28;20316;-84
2022/03/21 07:17:41;;;;;;;66.43;34.83;;;6.00;99.90;;;;;;5008111;28;20287;-83
2022/03/21 07:20:12;;;;;;;57.37;31.30;;;6.50;99.90;;;;;;4991406;28;20562;-82
2022/03/21 07:22:39;;;;;;;61.07;31.37;;;6.90;99.90;;;;;;4998682;28;20202;-84
2022/03/21 07:25:07;;;;;;;57.63;32.13;;;7.20;99.90;;;;;;5001874;28;20218;-84
2022/03/21 07:27:34;;;;;;;59.40;32.27;;;7.50;99.90;;;;;;4988516;28;20620;-82
2022/03/21 07:30:00;;;;;;;57.20;31.37;;;7.70;99.90;;;;;;4993988;28;20276;-83
2022/03/21 07:32:27;;;;;;;53.97;29.60;;;7.50;99.90;;;;;;5005601;28;20262;-82
2022/03/21 07:34:54;;;;;;;50.77;30.60;;;7.50;99.90;;;;;;5008257;28;20244;-82
2022/03/21 07:37:21;;;;;;;56.17;30.97;;;7.50;99.90;;;;;;5001027;28;20283;-83
2022/03/21 07:39:48;;;;;;;53.47;32.07;;;7.60;99.90;;;;;;5008564;28;20209;-85
2022/03/21 07:42:16;;;;;;;59.87;33.40;;;7.50;99.90;;;;;;4991443;28;20205;-86
2022/03/21 07:47:32;;;;;;;63.03;34.10;;;7.20;99.90;;;;;;5008636;28;20635;-88
2022/03/21 07:49:59;;;;;;;61.23;33.17;;;7.00;99.90;;;;;;4993744;28;20299;-89
2022/03/21 07:52:25;;;;;;;76.10;33.13;;;6.90;99.90;;;;;;4990500;28;20230;-88
2022/03/21 07:54:53;;;;;;;83.83;35.37;;;6.90;99.90;;;;;;4993936;28;20244;-90
2022/03/21 07:57:23;;;;;;;70.23;30.90;;;7.00;99.90;;;;;;4995317;28;20300;-90
2022/03/21 07:59:51;;;;;;;55.57;28.07;;;7.20;99.90;;;;;;4990695;28;20209;-89
2022/03/21 08:02:19;;;;;;;52.60;27.97;;;7.30;99.90;;;;;;4992438;28;20773;-87
2022/03/21 08:04:50;;;;;;;45.60;27.43;;;7.30;99.90;;;;;;5004885;28;20288;-85
2022/03/21 08:07:24;;;;;;;52.07;27.37;;;7.50;99.90;;;;;;4994737;28;20376;-88
2022/03/21 08:09:51;;;;;;;50.50;27.83;;;7.60;99.90;;;;;;4990865;28;20272;-87
2022/03/21 08:12:18;;;;;;;46.47;27.27;;;7.70;99.90;;;;;;4992261;28;20202;-86
2022/03/21 08:14:45;;;;;;;43.50;27.23;;;7.90;99.90;;;;;;5009759;28;20203;-87
2022/03/21 08:17:12;;;;;;;44.00;25.83;;;8.10;99.90;;;;;;5010687;28;20493;-87
2022/03/21 08:19:39;;;;;;;42.57;26.37;;;8.70;99.90;;;;;;5007018;28;20232;-86
2022/03/21 08:22:07;;;;;;;45.27;26.57;;;9.00;99.90;;;;;;4992110;28;20264;-89
2022/03/21 08:24:36;;;;;;;42.40;25.73;;;9.20;99.90;;;;;;4993705;28;20202;-89
2022/03/21 08:27:07;;;;;;;41.83;24.90;;;9.80;99.90;;;;;;4995454;28;20293;-89
2022/03/21 08:29:34;;;;;;;44.13;24.73;;;9.80;99.90;;;;;;4992012;28;20212;-86
2022/03/21 08:32:02;;;;;;;39.53;23.93;;;10.30;99.90;;;;;;4994324;28;20249;-88
2022/03/21 08:34:29;;;;;;;37.10;23.37;;;10.70;99.90;;;;;;4995523;28;20292;-87
2022/03/21 08:36:56;;;;;;;37.23;23.43;;;11.10;99.90;;;;;;4994679;28;20324;-86
2022/03/21 08:39:23;;;;;;;38.07;23.30;;;11.30;99.90;;;;;;4990753;28;20289;-88
2022/03/21 08:41:52;;;;;;;36.07;22.70;;;11.70;99.90;;;;;;5008036;28;20226;-87
2022/03/21 08:44:20;;;;;;;37.83;22.90;;;11.90;99.90;;;;;;4990386;28;20262;-86
2022/03/21 08:46:47;;;;;;;38.97;23.60;;;12.10;99.90;;;;;;5001869;28;20227;-88
2022/03/21 08:49:33;;;;;;;32.53;22.33;;;12.40;99.90;;;;;;4999568;28;20288;-88
2022/03/21 08:52:01;;;;;;;34.07;22.57;;;12.60;99.90;;;;;;5004878;28;20655;-88
2022/03/21 08:54:28;;;;;;;31.20;21.33;;;12.90;99.90;;;;;;4990356;28;20233;-88
2022/03/21 08:56:56;;;;;;;33.43;21.43;;;;;;;;;;4990188;28;20703;-88
2022/03/21 08:59:23;;;;;;;31.83;21.53;;;13.40;99.90;;;;;;5004824;28;20198;-87
2022/03/21 09:01:50;;;;;;;31.90;21.73;;;13.50;99.90;;;;;;5010951;28;20478;-88
2022/03/21 09:04:17;;;;;;;28.87;20.57;;;13.60;99.90;;;;;;4992440;28;20539;-86
2022/03/21 09:06:45;;;;;;;28.67;20.80;;;13.50;99.90;;;;;;5010463;28;20199;-86
2022/03/21 09:09:12;;;;;;;32.47;19.67;;;13.60;99.90;;;;;;5004747;28;20609;-85
2022/03/21 09:11:39;;;;;;;30.07;20.90;;;13.70;99.90;;;;;;5011876;28;20309;-84
2022/03/21 09:14:08;;;;;;;32.50;20.87;;;13.80;99.90;;;;;;5011802;28;20727;-83
2022/03/21 09:16:38;;;;;;;33.27;20.60;;;14.00;99.90;;;;;;4993787;28;20230;-86
2022/03/21 09:19:06;;;;;;;30.90;19.70;;;13.80;99.90;;;;;;5011038;28;20231;-86
2022/03/21 09:21:33;;;;;;;34.93;20.93;;;13.90;99.90;;;;;;4993291;28;20202;-85
2022/03/21 09:24:00;;;;;;;31.77;20.80;;;13.90;99.90;;;;;;4993532;28;20202;-85
2022/03/21 09:26:27;;;;;;;31.67;20.17;;;14.00;99.90;;;;;;5009298;28;20268;-85
2022/03/21 09:29:00;;;;;;;29.83;20.60;;;14.10;99.90;;;;;;5003907;28;20251;-88
2022/03/21 09:31:27;;;;;;;27.37;19.50;;;14.30;99.90;;;;;;5001470;28;20266;-83
2022/03/21 09:34:12;;;;;;;32.20;19.77;;;14.50;99.90;;;;;;5005101;28;20233;-85
2022/03/21 09:36:39;;;;;;;28.63;18.77;;;14.60;99.90;;;;;;4986705;28;20228;-82
2022/03/21 09:39:08;;;;;;;32.70;20.33;;;14.50;99.90;;;;;;4985431;28;20731;-84
2022/03/21 09:41:35;;;;;;;30.83;18.83;;;14.60;99.90;;;;;;5005581;28;20210;-83
2022/03/21 09:44:07;;;;;;;29.77;20.20;;;14.50;99.90;;;;;;4993997;28;20281;-83
2022/03/21 09:46:35;;;;;;;32.20;20.73;;;14.60;99.90;;;;;;5002611;28;20250;-84
2022/03/21 09:49:03;;;;;;;35.97;20.30;;;14.70;99.90;;;;;;5008412;28;20210;-85
2022/03/21 09:51:30;;;;;;;32.60;19.50;;;14.90;99.90;;;;;;4989952;28;20214;-82
2022/03/21 09:53:59;;;;;;;29.10;18.37;;;15.10;99.90;;;;;;4987543;28;20247;-83
2022/03/21 09:56:28;;;;;;;32.47;19.60;;;15.20;99.90;;;;;;5002345;28;20792;-82
2022/03/21 09:59:01;;;;;;;29.87;19.37;;;15.30;99.90;;;;;;5001271;28;20210;-84
2022/03/21 10:01:33;;;;;;;28.80;20.03;;;15.30;99.90;;;;;;5001714;28;20246;-85
2022/03/21 10:04:01;;;;;;;33.03;20.67;;;15.40;99.90;;;;;;4988709;28;20850;-84
2022/03/21 10:06:33;;;;;;;30.53;19.10;;;15.30;99.90;;;;;;5001110;28;20229;-82
2022/03/21 10:09:03;;;;;;;36.83;20.07;;;15.40;99.90;;;;;;5001632;28;20214;-83
2022/03/21 10:11:30;;;;;;;34.57;19.60;;;15.40;99.90;;;;;;4998397;28;20203;-83
2022/03/21 10:13:57;;;;;;;31.03;16.93;;;15.30;99.90;;;;;;5001532;28;20790;-84
2022/03/21 10:16:23;;;;;;;31.57;17.27;;;15.20;99.90;;;;;;5006016;28;20266;-84
2022/03/21 10:18:53;;;;;;;33.63;18.20;;;15.20;99.90;;;;;;4989356;28;20203;-84
2022/03/21 10:21:22;;;;;;;33.07;17.33;;;15.20;99.90;;;;;;5005617;28;20225;-84
2022/03/21 10:24:17;;;;;;;30.53;18.20;;;15.20;99.90;;;;;;5008960;28;20590;-82
2022/03/21 10:26:47;;;;;;;31.67;16.13;;;15.30;99.90;;;;;;4990476;28;20687;-81
2022/03/21 10:29:15;;;;;;;31.00;16.87;;;15.30;99.90;;;;;;4996449;28;20217;-84
2022/03/21 10:31:47;;;;;;;28.40;16.53;;;15.30;99.90;;;;;;5019507;28;20548;-83
2022/03/21 10:34:19;;;;;;;31.73;18.43;;;15.30;99.90;;;;;;4987880;28;20722;-81
2022/03/21 10:37:00;;;;;;;30.10;16.67;;;15.20;99.90;;;;;;5008961;28;20298;-83
2022/03/21 10:39:28;;;;;;;31.30;18.30;;;15.10;99.90;;;;;;5008145;28;20208;-83
2022/03/21 10:42:03;;;;;;;33.40;17.50;;;15.10;99.90;;;;;;5005515;28;20302;-83
2022/03/21 10:44:33;;;;;;;30.93;17.63;;;15.00;99.90;;;;;;5004347;28;20294;-85
2022/03/21 10:47:03;;;;;;;29.90;17.07;;;15.00;99.90;;;;;;5010981;28;20237;-85
2022/03/21 10:49:35;;;;;;;32.50;18.10;;;15.00;99.90;;;;;;5006287;28;20294;-84
2022/03/21 10:52:03;;;;;;;37.97;18.97;;;14.90;99.90;;;;;;5001366;28;20210;-85
2022/03/21 10:54:36;;;;;;;35.20;17.43;;;14.80;99.90;;;;;;5000787;28;20610;-85
2022/03/21 10:57:04;;;;;;;36.13;18.27;;;14.60;99.90;;;;;;5008370;28;20265;-85
2022/03/21 10:59:32;;;;;;;32.87;17.80;;;14.60;99.90;;;;;;5009727;28;20256;-84
2022/03/21 11:02:29;;;;;;;37.93;18.70;;;14.60;99.90;;;;;;4989000;28;20225;-83
2022/03/21 11:05:05;;;;;;;33.33;18.00;;;14.60;99.90;;;;;;4972154;28;20821;-84
2022/03/21 11:07:32;;;;;;;37.33;19.10;;;14.70;99.90;;;;;;4984814;28;20206;-85
2022/03/21 11:09:59;;;;;;;36.57;18.43;;;14.80;99.90;;;;;;5005780;28;20831;-84
2022/03/21 11:12:26;;;;;;;35.53;18.63;;;14.80;99.90;;;;;;5003701;28;20203;-85
2022/03/21 11:14:57;;;;;;;31.67;18.37;;;14.80;99.90;;;;;;4986181;28;20199;-83
2022/03/21 11:17:24;;;;;;;33.00;18.33;;;14.80;99.90;;;;;;5003207;28;20226;-83
2022/03/21 11:19:51;;;;;;;30.80;17.93;;;14.90;99.90;;;;;;5003301;28;20596;-83
2022/03/21 11:22:18;;;;;;;35.40;19.00;;;15.00;99.90;;;;;;4983950;28;20580;-85
2022/03/21 11:24:46;;;;;;;31.30;17.53;;;15.10;99.90;;;;;;4984366;28;20609;-83
2022/03/21 11:27:44;;;;;;;33.50;17.33;;;15.20;99.90;;;;;;5004503;28;20194;-84
2022/03/21 11:30:23;;;;;;;33.50;18.27;;;15.40;99.90;;;;;;4984968;28;20218;-86
2022/03/21 11:33:09;;;;;;;28.40;17.17;;;15.50;99.90;;;;;;4988234;28;20288;-83
2022/03/21 11:35:37;;;;;;;36.10;19.03;;;15.60;99.90;;;;;;4996605;28;20336;-85
2022/03/21 11:38:22;;;;;;;33.87;18.07;;;15.60;99.90;;;;;;4993555;28;20332;-83
2022/03/21 11:40:50;;;;;;;30.40;17.27;;;15.60;99.90;;;;;;5005513;28;20229;-83
2022/03/21 11:43:17;;;;;;;33.63;19.40;;;15.80;99.90;;;;;;5006064;28;20599;-84
2022/03/21 11:45:45;;;;;;;37.23;18.40;;;15.90;99.90;;;;;;5007756;28;20221;-85
2022/03/21 11:48:18;;;;;;;30.23;16.70;;;16.00;99.90;;;;;;4988936;28;20673;-84
2022/03/21 11:50:47;;;;;;;28.33;17.63;;;16.20;99.90;;;;;;5005638;28;20685;-86
2022/03/21 11:53:16;;;;;;;33.37;18.23;;;16.30;99.90;;;;;;4991134;28;20217;-83
2022/03/21 11:55:45;;;;;;;30.63;19.67;;;16.40;99.90;;;;;;4988612;28;20195;-84
2022/03/21 11:58:42;;;;;;;33.83;19.33;;;16.40;99.90;;;;;;5010224;28;20315;-83
2022/03/21 12:01:24;;;;;;;32.13;18.63;;;16.50;99.90;;;;;;5009458;28;20322;-83
2022/03/21 12:03:51;;;;;;;30.17;18.07;;;16.50;99.90;;;;;;5006337;28;20692;-85
2022/03/21 12:06:30;;;;;;;34.37;19.47;;;16.50;99.90;;;;;;5005158;28;20630;-85
2022/03/21 12:09:10;;;;;;;35.70;20.63;;;16.50;99.90;;;;;;5006996;28;20214;-85
2022/03/21 12:11:40;;;;;;;35.53;19.73;;;16.70;99.90;;;;;;4991929;28;20321;-84
2022/03/21 12:14:36;;;;;;;32.67;18.60;;;16.50;99.90;;;;;;4989255;28;20210;-86
2022/03/21 12:17:16;;;;;;;32.57;18.63;;;16.60;99.90;;;;;;5003732;28;20725;-85
2022/03/21 12:19:46;;;;;;;31.27;18.47;;;16.60;99.90;;;;;;5003631;28;20756;-86
2022/03/21 12:22:34;;;;;;;34.90;19.80;;;16.70;99.90;;;;;;5013867;28;20828;-85
2022/03/21 12:25:18;;;;;;;33.93;19.07;;;16.80;99.90;;;;;;5007894;28;20202;-86
2022/03/21 12:27:56;;;;;;;32.80;18.80;;;16.80;99.90;;;;;;5011875;28;20281;-85
2022/03/21 12:30:32;;;;;;;33.90;19.10;;;16.80;99.90;;;;;;5009882;28;20214;-86
2022/03/21 12:33:13;;;;;;;32.37;18.97;;;16.70;99.90;;;;;;5003991;28;20237;-85
2022/03/21 12:35:42;;;;;;;28.63;17.40;;;16.80;99.90;;;;;;5001997;28;20269;-85
2022/03/21 12:38:12;;;;;;;29.03;18.60;;;16.80;99.90;;;;;;4982098;28;20316;-84
2022/03/21 12:40:54;;;;;;;30.70;18.20;;;17.00;99.90;;;;;;4983082;28;20675;-84
2022/03/21 12:43:23;;;;;;;34.77;19.43;;;17.10;99.90;;;;;;5001417;28;20207;-86
2022/03/21 12:46:14;;;;;;;33.65;19.60;;;17.30;99.90;;;;;;4994683;28;20305;-85
2022/03/21 12:48:43;;;;;;;29.07;17.53;;;17.30;99.90;;;;;;5004366;28;20203;-85
2022/03/21 12:51:13;;;;;;;34.20;19.48;;;17.40;99.90;;;;;;4991210;28;20214;-85
2022/03/21 12:53:49;;;;;;;31.98;19.00;;;17.50;99.90;;;;;;5006299;28;20813;-88
2022/03/21 12:56:19;;;;;;;31.20;18.33;;;17.60;99.90;;;;;;5005858;28;20293;-86